Time;durP1;ratioP1;P1;durP2;ratioP2;P2;SDS_P1;SDS_P2;PMS_P1;PMS_P2;Temp;Humidity;BMP_temperature;BMP_pressure;BME280_temperature;BME280_humidity;BME280_pressure;Samples;Min_cycle;Max_cycle;Signal;HPM_P1;HPM_P2
2024/04/26 00:00:06;;;;;;;4.40;3.70;;;10.10;53.50;;;;;;5420268;26;20342;-56
2024/04/26 00:02:33;;;;;;;3.57;3.20;;;10.00;53.40;;;;;;5436304;26;20240;-57
2024/04/26 00:04:58;;;;;;;4.97;3.70;;;10.00;53.50;;;;;;5435081;26;20474;-57
2024/04/26 00:07:24;;;;;;;4.60;4.10;;;10.00;53.50;;;;;;5429939;26;20542;-56
2024/04/26 00:09:49;;;;;;;4.67;4.17;;;10.00;53.40;;;;;;5433342;26;22071;-57
2024/04/26 00:12:15;;;;;;;5.30;3.67;;;10.10;53.30;;;;;;5437334;26;20579;-59
2024/04/26 00:14:41;;;;;;;4.67;4.23;;;10.10;53.30;;;;;;5430696;26;20238;-57
2024/04/26 00:17:08;;;;;;;5.13;3.90;;;10.10;53.20;;;;;;5435006;26;20257;-59
2024/04/26 00:19:33;;;;;;;4.97;3.53;;;10.00;53.40;;;;;;5437406;26;20474;-58
2024/04/26 00:21:59;;;;;;;4.00;3.60;;;10.00;53.60;;;;;;5436207;26;20531;-58
2024/04/26 00:24:25;;;;;;;4.70;3.70;;;10.00;53.70;;;;;;5442286;26;20248;-58
2024/04/26 00:26:50;;;;;;;6.97;4.20;;;9.80;54.80;;;;;;5408684;26;21090;-55
2024/04/26 00:29:17;;;;;;;4.23;3.70;;;9.50;55.30;;;;;;5399666;26;20238;-58
2024/04/26 00:31:43;;;;;;;4.90;4.40;;;9.50;55.80;;;;;;5405209;26;20245;-58
2024/04/26 00:34:08;;;;;;;4.13;3.73;;;9.50;56.20;;;;;;5402211;26;20583;-58
2024/04/26 00:36:39;;;;;;;4.87;3.87;;;9.40;56.50;;;;;;5398515;26;20237;-59
2024/04/26 00:39:04;;;;;;;5.10;3.73;;;9.10;56.70;;;;;;5396943;26;20241;-59
2024/04/26 00:41:30;;;;;;;4.70;3.67;;;9.10;57.20;;;;;;5399053;26;20531;-54
2024/04/26 00:44:06;;;;;;;5.97;4.00;;;9.30;56.90;;;;;;5395359;26;20339;-58
2024/04/26 00:46:32;;;;;;;4.30;3.90;;;9.40;56.60;;;;;;5396828;26;20728;-57
2024/04/26 00:48:57;;;;;;;4.27;3.87;;;9.30;56.50;;;;;;5402485;26;20484;-58
2024/04/26 00:51:23;;;;;;;5.60;4.40;;;9.10;56.90;;;;;;5402302;26;20237;-56
2024/04/26 00:53:49;;;;;;;6.10;3.63;;;8.90;57.50;;;;;;5400025;26;21133;-58
2024/04/26 00:56:15;;;;;;;4.30;3.67;;;9.00;57.70;;;;;;5401226;26;21066;-57
2024/04/26 00:58:42;;;;;;;5.63;4.37;;;8.90;57.90;;;;;;5403363;26;20242;-57
2024/04/26 01:01:08;;;;;;;4.53;3.80;;;8.90;58.10;;;;;;5398197;26;20472;-57
2024/04/26 01:03:33;;;;;;;4.60;3.80;;;8.80;58.30;;;;;;5395538;26;21156;-56
2024/04/26 01:05:59;;;;;;;7.27;3.73;;;8.90;58.10;;;;;;5397093;26;20305;-58
2024/04/26 01:08:25;;;;;;;5.10;3.90;;;8.80;58.00;;;;;;5400344;26;20854;-56
2024/04/26 01:10:50;;;;;;;4.90;3.70;;;8.90;57.90;;;;;;5401405;26;20247;-57
2024/04/26 01:13:16;;;;;;;5.33;3.93;;;9.00;57.70;;;;;;5402419;26;20279;-57
2024/04/26 01:15:41;;;;;;;3.50;3.20;;;9.00;57.20;;;;;;5400584;26;20243;-55
2024/04/26 01:18:07;;;;;;;3.43;3.13;;;8.60;57.60;;;;;;5409687;26;20648;-57
2024/04/26 01:20:33;;;;;;;4.77;3.90;;;8.40;58.30;;;;;;5400503;26;20229;-57
2024/04/26 01:22:59;;;;;;;4.50;3.57;;;8.50;58.40;;;;;;5405355;26;20277;-58
2024/04/26 01:25:24;;;;;;;4.90;4.03;;;8.50;58.60;;;;;;5396939;26;20242;-57
2024/04/26 01:27:50;;;;;;;8.27;3.87;;;8.30;58.10;;;;;;5439160;26;20482;-55
2024/04/26 01:30:18;;;;;;;8.17;4.70;;;8.20;58.20;;;;;;5433512;26;20238;-58
2024/04/26 01:32:44;;;;;;;6.07;3.60;;;8.30;58.20;;;;;;5433740;26;20245;-56
2024/04/26 01:35:09;;;;;;;3.90;3.50;;;8.20;58.20;;;;;;5436605;26;21078;-58
2024/04/26 01:37:35;;;;;;;5.70;4.03;;;8.40;58.10;;;;;;5441329;26;20727;-57
2024/04/26 01:40:01;;;;;;;4.07;3.47;;;8.40;57.90;;;;;;5430269;26;20346;-58
2024/04/26 01:42:30;;;;;;;6.60;3.70;;;8.50;57.60;;;;;;5439793;26;20453;-56
2024/04/26 01:44:55;;;;;;;4.83;3.80;;;8.50;57.70;;;;;;5436669;26;20289;-57
2024/04/26 01:47:21;;;;;;;7.83;4.10;;;8.60;57.70;;;;;;5441869;26;21293;-56
2024/04/26 01:49:46;;;;;;;4.00;3.23;;;8.70;57.30;;;;;;5445604;26;20244;-58
2024/04/26 01:52:12;;;;;;;4.60;3.70;;;8.70;57.10;;;;;;5433901;26;20275;-57
2024/04/26 01:54:37;;;;;;;3.93;3.50;;;8.40;57.30;;;;;;5437568;26;20371;-58
2024/04/26 01:57:03;;;;;;;3.90;3.30;;;8.40;57.60;;;;;;5437268;26;20793;-57
2024/04/26 01:59:28;;;;;;;12.33;3.50;;;8.30;57.60;;;;;;5434231;26;20337;-58
2024/04/26 02:01:54;;;;;;;7.27;3.63;;;8.30;57.70;;;;;;5443506;26;20240;-57
2024/04/26 02:04:19;;;;;;;6.13;3.90;;;8.30;57.70;;;;;;5438298;26;20236;-56
2024/04/26 02:06:45;;;;;;;4.60;3.57;;;8.60;57.30;;;;;;5437645;26;20240;-54
2024/04/26 02:09:11;;;;;;;3.97;3.50;;;8.30;57.40;;;;;;5435781;26;20237;-59
2024/04/26 02:11:36;;;;;;;4.07;3.40;;;8.40;57.50;;;;;;5430702;26;20282;-55
2024/04/26 02:14:02;;;;;;;3.80;3.37;;;8.50;57.40;;;;;;5434081;26;20236;-57
2024/04/26 02:16:27;;;;;;;3.43;3.13;;;8.60;57.50;;;;;;5445428;26;20336;-57
2024/04/26 02:18:56;;;;;;;4.77;3.30;;;8.60;57.50;;;;;;5436706;26;20237;-57
2024/04/26 02:21:21;;;;;;;6.20;4.00;;;8.60;57.20;;;;;;5436355;26;20595;-57
2024/04/26 02:23:47;;;;;;;5.60;3.53;;;8.40;57.70;;;;;;5433118;26;20478;-56
2024/04/26 02:26:19;;;;;;;3.60;3.30;;;8.60;57.80;;;;;;5420463;26;20669;-55
2024/04/26 02:28:45;;;;;;;4.87;3.60;;;8.50;57.50;;;;;;5399829;26;20284;-57
2024/04/26 02:31:11;;;;;;;3.53;3.20;;;8.40;58.20;;;;;;5404283;26;20839;-57
2024/04/26 02:33:37;;;;;;;3.80;3.40;;;8.40;58.20;;;;;;5396287;26;20720;-56
2024/04/26 02:36:11;;;;;;;6.97;3.80;;;8.50;58.00;;;;;;5401196;26;20297;-57
2024/04/26 02:38:40;;;;;;;4.73;3.40;;;8.60;57.50;;;;;;5402069;26;20318;-56
2024/04/26 02:41:13;;;;;;;3.47;2.83;;;8.70;57.20;;;;;;5412660;26;21508;-57
2024/04/26 02:43:41;;;;;;;6.97;3.50;;;8.80;56.90;;;;;;5409570;26;20467;-58
2024/04/26 02:46:09;;;;;;;4.10;3.43;;;8.90;56.60;;;;;;5404451;26;20464;-57
2024/04/26 02:48:34;;;;;;;5.50;3.50;;;8.80;56.40;;;;;;5406991;26;21120;-56
2024/04/26 02:51:00;;;;;;;8.03;3.37;;;8.90;56.30;;;;;;5402206;26;20471;-57
2024/04/26 02:53:26;;;;;;;4.10;2.97;;;8.90;56.30;;;;;;5401402;26;20684;-58
2024/04/26 02:55:51;;;;;;;3.33;3.00;;;8.90;56.00;;;;;;5404724;26;20243;-57
2024/04/26 02:58:17;;;;;;;4.33;2.80;;;9.00;55.70;;;;;;5400925;26;20253;-55
2024/04/26 03:00:42;;;;;;;4.67;3.50;;;8.70;55.60;;;;;;5403929;26;20245;-58
2024/04/26 03:03:08;;;;;;;6.03;3.07;;;8.60;56.10;;;;;;5412165;26;20763;-56
2024/04/26 03:05:33;;;;;;;5.17;2.70;;;8.50;56.20;;;;;;5391613;26;20296;-58
2024/04/26 03:07:59;;;;;;;3.50;3.20;;;8.50;56.40;;;;;;5394320;26;20828;-56
2024/04/26 03:10:24;;;;;;;5.00;3.50;;;8.40;56.40;;;;;;5400876;26;20785;-57
2024/04/26 03:12:50;;;;;;;3.87;3.10;;;8.30;56.70;;;;;;5404350;26;20856;-58
2024/04/26 03:15:15;;;;;;;3.50;3.20;;;8.00;57.20;;;;;;5401509;26;20318;-57
2024/04/26 03:17:41;;;;;;;3.63;3.00;;;8.00;57.40;;;;;;5402634;26;20241;-57
2024/04/26 03:20:07;;;;;;;4.60;3.90;;;8.00;57.50;;;;;;5408415;26;20237;-58
2024/04/26 03:22:33;;;;;;;6.33;3.03;;;8.20;57.20;;;;;;5401083;26;20276;-57
2024/04/26 03:24:58;;;;;;;3.17;2.93;;;8.10;56.90;;;;;;5398634;26;20469;-57
2024/04/26 03:27:24;;;;;;;3.63;3.27;;;8.10;57.20;;;;;;5437502;26;20726;-57
2024/04/26 03:29:49;;;;;;;3.57;3.03;;;8.10;57.40;;;;;;5437924;26;20244;-56
2024/04/26 03:32:15;;;;;;;5.10;3.23;;;8.00;57.30;;;;;;5440720;26;20238;-56
2024/04/26 03:34:41;;;;;;;3.43;3.00;;;8.10;57.40;;;;;;5436935;26;20790;-57
2024/04/26 03:37:07;;;;;;;6.97;3.60;;;7.80;57.50;;;;;;5444204;26;20272;-56
2024/04/26 03:39:33;;;;;;;3.13;2.83;;;7.80;58.00;;;;;;5443789;26;20982;-57
2024/04/26 03:41:59;;;;;;;3.27;2.97;;;7.80;58.10;;;;;;5440989;26;20256;-55
2024/04/26 03:44:24;;;;;;;4.93;3.40;;;7.40;58.90;;;;;;5444962;26;20283;-57
2024/04/26 03:46:50;;;;;;;3.27;2.97;;;7.30;59.40;;;;;;5424892;26;20354;-55
2024/04/26 03:49:15;;;;;;;5.73;3.63;;;7.10;60.00;;;;;;5434480;26;20280;-57
2024/04/26 03:51:41;;;;;;;4.37;3.57;;;7.00;60.90;;;;;;5430229;26;20342;-55
2024/04/26 03:54:06;;;;;;;3.97;3.07;;;7.00;60.90;;;;;;5430284;26;20244;-58
2024/04/26 03:56:32;;;;;;;3.47;2.97;;;7.20;60.60;;;;;;5430883;26;20288;-58
2024/04/26 03:58:57;;;;;;;4.53;3.47;;;7.30;59.80;;;;;;5427584;26;20309;-58
2024/04/26 04:01:23;;;;;;;7.50;3.90;;;7.10;59.70;;;;;;5438695;26;20278;-57
2024/04/26 04:03:49;;;;;;;3.73;3.00;;;6.90;60.60;;;;;;5435114;26;20240;-57
2024/04/26 04:06:14;;;;;;;4.43;2.80;;;7.00;61.10;;;;;;5427810;26;20776;-58
2024/04/26 04:08:42;;;;;;;3.73;3.33;;;7.00;60.80;;;;;;5441401;26;20742;-55
2024/04/26 04:11:08;;;;;;;3.50;2.80;;;7.00;60.70;;;;;;5440688;26;20221;-58
2024/04/26 04:13:33;;;;;;;3.47;3.17;;;6.90;60.80;;;;;;5440765;26;20466;-58
2024/04/26 04:15:59;;;;;;;3.70;3.40;;;6.90;61.30;;;;;;5438337;26;20280;-57
2024/04/26 04:18:26;;;;;;;3.87;3.07;;;7.10;61.60;;;;;;5442316;26;20279;-57
2024/04/26 04:20:51;;;;;;;3.17;2.87;;;7.10;60.70;;;;;;5433001;26;20244;-54
2024/04/26 04:23:17;;;;;;;4.77;3.90;;;7.10;60.20;;;;;;5445221;26;20522;-57
2024/04/26 04:25:43;;;;;;;4.87;3.77;;;7.30;60.20;;;;;;5441593;26;20287;-57
2024/04/26 04:28:09;;;;;;;4.50;3.20;;;7.40;60.20;;;;;;5431696;26;20241;-58
2024/04/26 04:30:35;;;;;;;4.33;2.97;;;7.60;59.40;;;;;;5423136;26;20731;-55
2024/04/26 04:33:01;;;;;;;4.27;3.67;;;7.80;59.10;;;;;;5434182;26;20529;-56
2024/04/26 04:35:26;;;;;;;4.57;3.43;;;7.80;58.80;;;;;;5430317;26;20268;-55
2024/04/26 04:37:52;;;;;;;9.80;4.00;;;7.70;58.60;;;;;;5425347;26;20669;-57
2024/04/26 04:40:18;;;;;;;5.07;3.30;;;7.70;58.70;;;;;;5417652;26;20221;-58
2024/04/26 04:42:43;;;;;;;4.30;3.90;;;7.80;58.70;;;;;;5426166;26;20314;-56
2024/04/26 04:45:09;;;;;;;4.50;3.57;;;8.00;58.50;;;;;;5423800;26;20242;-55
2024/04/26 04:47:34;;;;;;;4.03;3.33;;;8.20;58.20;;;;;;5421138;26;20290;-55
2024/04/26 04:50:00;;;;;;;4.00;3.30;;;8.40;57.50;;;;;;5431314;26;20233;-57
2024/04/26 04:52:25;;;;;;;3.10;2.90;;;8.60;57.20;;;;;;5437510;26;20282;-58
2024/04/26 04:54:51;;;;;;;20.53;3.43;;;8.80;56.80;;;;;;5434302;26;20241;-55
2024/04/26 04:57:16;;;;;;;5.90;3.13;;;8.80;59.60;;;;;;5436400;26;20677;-55
2024/04/26 04:59:43;;;;;;;8.83;4.30;;;9.40;63.60;;;;;;5432725;26;20249;-58
2024/04/26 05:02:09;;;;;;;3.23;2.80;;;9.90;60.90;;;;;;5434707;26;20270;-57
2024/04/26 05:04:35;;;;;;;7.30;3.40;;;10.50;58.00;;;;;;5434729;26;20470;-56
2024/04/26 05:07:00;;;;;;;4.77;3.27;;;10.90;55.40;;;;;;5433427;26;20529;-58
2024/04/26 05:09:26;;;;;;;3.73;3.43;;;11.20;54.20;;;;;;5434572;26;20233;-57
2024/04/26 05:11:51;;;;;;;7.43;3.10;;;11.50;52.60;;;;;;5428154;26;20587;-59
2024/04/26 05:14:18;;;;;;;4.13;3.37;;;11.50;51.30;;;;;;5420532;26;20327;-57
2024/04/26 05:16:44;;;;;;;4.90;3.00;;;11.40;50.40;;;;;;5432279;26;20483;-59
2024/04/26 05:19:09;;;;;;;4.50;3.10;;;11.00;51.20;;;;;;5433752;26;20263;-58
2024/04/26 05:21:35;;;;;;;4.63;3.03;;;11.00;51.70;;;;;;5421300;26;20240;-58
2024/04/26 05:24:01;;;;;;;6.00;2.90;;;10.80;51.50;;;;;;5409900;26;20346;-58
2024/04/26 05:26:26;;;;;;;5.40;3.43;;;10.90;52.00;;;;;;5439305;26;20271;-57
2024/04/26 05:28:52;;;;;;;5.00;3.00;;;10.80;51.50;;;;;;5424077;26;20245;-56
2024/04/26 05:31:18;;;;;;;3.87;3.03;;;10.80;51.70;;;;;;5434682;26;20296;-58
2024/04/26 05:33:43;;;;;;;4.27;2.83;;;10.80;51.60;;;;;;5439211;26;20659;-61
2024/04/26 05:36:09;;;;;;;3.53;3.23;;;10.70;51.90;;;;;;5429385;26;20271;-59
2024/04/26 05:38:35;;;;;;;4.53;2.90;;;10.70;52.00;;;;;;5426442;26;20245;-58
2024/04/26 05:41:00;;;;;;;5.00;3.03;;;10.80;52.00;;;;;;5417328;26;20237;-61
2024/04/26 05:43:26;;;;;;;3.77;2.83;;;10.80;51.80;;;;;;5429900;26;20617;-58
2024/04/26 05:45:52;;;;;;;3.47;2.70;;;10.80;51.60;;;;;;5433274;26;20656;-61
2024/04/26 05:48:18;;;;;;;6.27;3.37;;;10.80;51.60;;;;;;5417280;26;20288;-62
2024/04/26 05:50:43;;;;;;;7.63;2.73;;;10.80;51.60;;;;;;5425607;26;20463;-61
2024/04/26 05:53:09;;;;;;;3.47;2.67;;;10.80;51.30;;;;;;5440076;26;20238;-58
2024/04/26 05:55:35;;;;;;;2.97;2.70;;;10.80;51.40;;;;;;5441035;26;20232;-58
2024/04/26 05:58:00;;;;;;;5.07;3.30;;;10.80;51.50;;;;;;5437581;26;20293;-56
2024/04/26 06:00:28;;;;;;;4.13;3.03;;;10.90;51.20;;;;;;5438980;26;20232;-62
2024/04/26 06:02:56;;;;;;;3.30;3.00;;;11.00;50.90;;;;;;5430310;26;20253;-61
2024/04/26 06:05:22;;;;;;;3.37;3.00;;;11.00;50.70;;;;;;5421743;26;20593;-61
2024/04/26 06:07:47;;;;;;;2.97;2.73;;;11.10;50.40;;;;;;5443557;26;20473;-57
2024/04/26 06:10:13;;;;;;;5.47;3.27;;;11.20;50.40;;;;;;5432781;26;21495;-62
2024/04/26 06:12:41;;;;;;;3.90;2.90;;;11.10;50.10;;;;;;5433320;26;20278;-59
2024/04/26 06:15:25;;;;;;;4.93;3.30;;;11.10;50.40;;;;;;5428057;26;20280;-58
2024/04/26 06:17:51;;;;;;;3.60;2.60;;;11.20;50.50;;;;;;5435810;26;20604;-59
2024/04/26 06:20:19;;;;;;;4.50;2.63;;;11.30;50.40;;;;;;5436156;26;20574;-58
2024/04/26 06:22:45;;;;;;;5.00;3.30;;;11.40;50.30;;;;;;5440449;26;20775;-57
2024/04/26 06:25:10;;;;;;;2.70;2.40;;;11.50;50.10;;;;;;5415338;26;20475;-61
2024/04/26 06:27:36;;;;;;;9.20;2.90;;;11.60;49.70;;;;;;5408844;26;20264;-62
2024/04/26 06:30:02;;;;;;;3.10;2.57;;;11.70;49.90;;;;;;5407306;26;20233;-60
2024/04/26 06:32:28;;;;;;;4.23;3.20;;;11.90;49.60;;;;;;5409776;26;20234;-62
2024/04/26 06:34:53;;;;;;;5.07;3.60;;;12.00;49.40;;;;;;5410688;26;20885;-58
2024/04/26 06:37:19;;;;;;;3.53;2.97;;;12.10;49.40;;;;;;5407017;26;20229;-61
2024/04/26 06:39:44;;;;;;;3.17;2.87;;;12.20;49.30;;;;;;5409571;26;20234;-59
2024/04/26 06:42:10;;;;;;;3.63;3.33;;;12.30;49.50;;;;;;5408855;26;20241;-61
2024/04/26 06:44:35;;;;;;;7.13;3.60;;;12.40;49.10;;;;;;5399355;26;20234;-62
2024/04/26 06:47:01;;;;;;;2.97;2.67;;;12.40;49.10;;;;;;5407476;26;20768;-61
2024/04/26 06:49:27;;;;;;;5.23;3.60;;;12.30;49.10;;;;;;5410594;26;20241;-60
2024/04/26 06:51:52;;;;;;;5.23;3.60;;;12.30;49.10;;;;;;5397989;26;20246;-59
2024/04/26 06:54:18;;;;;;;3.63;3.30;;;12.40;49.00;;;;;;5409073;26;20651;-60
2024/04/26 06:56:43;;;;;;;5.70;3.00;;;12.50;48.80;;;;;;5410745;26;20296;-59
2024/04/26 06:59:09;;;;;;;4.00;3.60;;;12.50;48.70;;;;;;5398208;26;20238;-62
2024/04/26 07:01:34;;;;;;;4.57;3.17;;;12.50;48.60;;;;;;5399421;26;20253;-61
2024/04/26 07:04:00;;;;;;;3.17;2.97;;;12.50;48.70;;;;;;5398662;26;20237;-57
2024/04/26 07:06:25;;;;;;;5.53;2.87;;;12.50;48.50;;;;;;5400666;26;20284;-59
2024/04/26 07:08:51;;;;;;;7.23;4.20;;;12.10;48.30;;;;;;5405646;26;20721;-60
2024/04/26 07:11:17;;;;;;;5.03;3.30;;;11.80;48.10;;;;;;5401171;26;20342;-60
2024/04/26 07:13:44;;;;;;;4.97;3.60;;;11.80;49.50;;;;;;5409122;26;20234;-59
2024/04/26 07:16:10;;;;;;;5.53;3.20;;;11.90;50.20;;;;;;5404381;26;20535;-57
2024/04/26 07:18:35;;;;;;;4.20;2.50;;;12.00;49.20;;;;;;5404990;26;20475;-61
2024/04/26 07:21:01;;;;;;;5.57;3.00;;;11.90;48.60;;;;;;5397360;26;20233;-60
2024/04/26 07:23:26;;;;;;;3.47;2.50;;;12.00;49.00;;;;;;5407713;26;20238;-61
2024/04/26 07:25:52;;;;;;;4.90;3.23;;;12.30;48.90;;;;;;5412305;26;20296;-56
2024/04/26 07:28:17;;;;;;;4.80;3.83;;;12.50;48.60;;;;;;5438657;26;20297;-60
2024/04/26 07:30:43;;;;;;;3.90;2.60;;;12.60;49.00;;;;;;5435700;26;20237;-64
2024/04/26 07:33:09;;;;;;;4.57;3.33;;;12.70;48.90;;;;;;5432950;26;20240;-59
2024/04/26 07:35:34;;;;;;;4.80;2.60;;;12.80;49.00;;;;;;5427479;26;20732;-57
2024/04/26 07:38:00;;;;;;;4.37;2.90;;;13.10;48.70;;;;;;5426770;26;20295;-60
2024/04/26 07:40:26;;;;;;;4.00;3.40;;;13.20;48.70;;;;;;5442310;26;20645;-59
2024/04/26 07:42:51;;;;;;;3.93;3.00;;;13.30;48.50;;;;;;5435495;26;20233;-59
2024/04/26 07:45:17;;;;;;;3.13;2.47;;;13.20;48.70;;;;;;5432286;26;20291;-60
2024/04/26 07:47:42;;;;;;;3.27;2.97;;;12.80;49.40;;;;;;5437145;26;20346;-57
2024/04/26 07:50:08;;;;;;;4.10;3.00;;;12.70;50.40;;;;;;5435071;26;20240;-56
2024/04/26 07:52:34;;;;;;;12.40;3.40;;;12.90;50.10;;;;;;5437168;26;20756;-60
2024/04/26 07:54:59;;;;;;;3.63;3.00;;;13.10;50.10;;;;;;5437633;26;20236;-62
2024/04/26 07:57:26;;;;;;;4.40;3.17;;;13.00;50.20;;;;;;5440758;26;20825;-63
2024/04/26 07:59:53;;;;;;;4.40;2.93;;;12.70;51.20;;;;;;5443883;26;20584;-59
2024/04/26 08:02:18;;;;;;;4.10;2.80;;;12.60;52.00;;;;;;5431374;26;20478;-59
2024/04/26 08:04:44;;;;;;;4.23;2.67;;;12.70;52.80;;;;;;5434139;26;20589;-60
2024/04/26 08:07:10;;;;;;;3.03;2.60;;;13.00;52.30;;;;;;5443027;26;20583;-61
2024/04/26 08:09:36;;;;;;;3.00;2.60;;;13.10;51.90;;;;;;5429507;26;20233;-61
2024/04/26 08:12:01;;;;;;;2.60;2.40;;;13.20;51.70;;;;;;5424622;26;20819;-60
2024/04/26 08:14:27;;;;;;;8.60;3.20;;;13.20;51.40;;;;;;5437027;26;20899;-59
2024/04/26 08:16:53;;;;;;;7.07;2.93;;;13.40;50.90;;;;;;5431229;26;20320;-57
2024/04/26 08:19:20;;;;;;;5.60;2.90;;;13.80;50.40;;;;;;5426390;26;20232;-61
2024/04/26 08:21:46;;;;;;;3.93;2.93;;;14.00;49.90;;;;;;5436011;26;20228;-64
2024/04/26 08:24:12;;;;;;;7.87;2.70;;;14.20;49.50;;;;;;5434662;26;20485;-58
2024/04/26 08:26:38;;;;;;;3.80;2.90;;;14.20;49.50;;;;;;5416356;26;21098;-59
2024/04/26 08:29:03;;;;;;;5.67;2.57;;;13.80;50.60;;;;;;5391088;26;20475;-61
2024/04/26 08:31:29;;;;;;;4.57;2.30;;;13.80;50.30;;;;;;5396832;26;20234;-59
2024/04/26 08:33:56;;;;;;;3.07;2.53;;;13.90;50.40;;;;;;5398017;26;20241;-59
2024/04/26 08:36:22;;;;;;;4.43;2.60;;;13.70;50.50;;;;;;5401413;26;20242;-61
2024/04/26 08:38:53;;;;;;;3.63;2.87;;;13.80;51.00;;;;;;5401976;26;20539;-62
2024/04/26 08:41:22;;;;;;;3.23;2.93;;;14.00;50.90;;;;;;5395684;26;20477;-60
2024/04/26 08:43:48;;;;;;;4.67;2.87;;;14.30;50.50;;;;;;5394271;26;21185;-60
2024/04/26 08:46:18;;;;;;;6.83;3.33;;;14.60;50.70;;;;;;5402474;26;20471;-61
2024/04/26 08:48:45;;;;;;;3.57;2.77;;;14.70;50.50;;;;;;5384686;26;20494;-59
2024/04/26 08:51:13;;;;;;;3.83;2.60;;;14.50;50.40;;;;;;5378602;26;21077;-60
2024/04/26 08:53:39;;;;;;;4.10;2.80;;;14.50;49.80;;;;;;5397214;26;20830;-57
2024/04/26 08:56:08;;;;;;;3.60;2.70;;;14.20;50.10;;;;;;5392214;26;20486;-61
2024/04/26 08:58:36;;;;;;;3.93;2.73;;;14.20;51.10;;;;;;5390495;26;20829;-62
2024/04/26 09:01:03;;;;;;;2.80;2.30;;;14.20;51.30;;;;;;5390249;26;20533;-62
2024/04/26 09:03:29;;;;;;;4.23;2.73;;;14.10;50.60;;;;;;5396300;26;21104;-64
2024/04/26 09:05:57;;;;;;;3.70;2.80;;;14.20;50.90;;;;;;5400240;26;20574;-61
2024/04/26 09:08:22;;;;;;;2.70;2.50;;;14.50;50.90;;;;;;5396582;26;21022;-58
2024/04/26 09:10:48;;;;;;;4.10;2.80;;;14.60;50.50;;;;;;5404237;26;20463;-60
2024/04/26 09:13:15;;;;;;;6.10;2.70;;;14.70;50.90;;;;;;5401843;26;20235;-58
2024/04/26 09:15:40;;;;;;;5.63;2.27;;;14.80;50.20;;;;;;5393438;26;20276;-58
2024/04/26 09:18:06;;;;;;;3.10;1.80;;;14.80;50.90;;;;;;5395402;26;20467;-60
2024/04/26 09:20:36;;;;;;;5.07;1.70;;;14.70;50.50;;;;;;5398815;26;20241;-58
2024/04/26 09:23:03;;;;;;;1.57;1.47;;;14.60;50.50;;;;;;5396324;26;20636;-60
2024/04/26 09:25:39;;;;;;;2.80;1.70;;;14.40;49.90;;;;;;5393690;26;20475;-61
2024/04/26 09:28:06;;;;;;;2.60;1.90;;;14.40;50.80;;;;;;5398912;26;20483;-59
2024/04/26 09:30:32;;;;;;;3.07;1.90;;;14.50;50.30;;;;;;5397177;26;20475;-62
2024/04/26 09:32:58;;;;;;;1.73;1.60;;;14.70;50.00;;;;;;5404210;26;21156;-60
2024/04/26 09:35:25;;;;;;;1.87;1.60;;;14.60;49.90;;;;;;5396618;26;20591;-61
2024/04/26 09:37:53;;;;;;;2.33;1.60;;;14.90;50.80;;;;;;5405919;26;20520;-60
2024/04/26 09:40:21;;;;;;;3.00;1.90;;;15.10;51.00;;;;;;5396550;26;20518;-61
2024/04/26 09:42:48;;;;;;;2.27;1.47;;;15.20;50.30;;;;;;5401235;26;20475;-62
2024/04/26 09:45:15;;;;;;;4.50;1.67;;;15.30;49.80;;;;;;5408766;26;20472;-59
2024/04/26 09:47:41;;;;;;;4.03;2.00;;;15.40;49.80;;;;;;5398500;26;20479;-61
2024/04/26 09:50:08;;;;;;;1.70;1.60;;;15.60;50.00;;;;;;5405938;26;20519;-62
2024/04/26 09:52:34;;;;;;;4.23;1.93;;;15.50;49.20;;;;;;5401512;26;20487;-60
2024/04/26 09:55:01;;;;;;;2.67;2.10;;;15.50;49.30;;;;;;5399852;26;20597;-60
2024/04/26 09:57:27;;;;;;;1.73;1.60;;;15.50;49.60;;;;;;5403532;26;20463;-59
2024/04/26 09:59:53;;;;;;;2.00;1.50;;;15.60;49.80;;;;;;5401367;26;20621;-60
2024/04/26 10:02:21;;;;;;;2.50;1.87;;;15.50;49.50;;;;;;5394826;26;20677;-60
2024/04/26 10:04:49;;;;;;;3.30;1.60;;;15.70;49.10;;;;;;5395124;26;20519;-60
2024/04/26 10:07:22;;;;;;;3.40;2.00;;;15.80;48.80;;;;;;5402079;26;20483;-61
2024/04/26 10:09:59;;;;;;;2.10;2.00;;;15.90;48.90;;;;;;5405572;26;20477;-58
2024/04/26 10:12:30;;;;;;;2.00;1.90;;;16.00;49.00;;;;;;5405397;26;20574;-60
2024/04/26 10:15:07;;;;;;;2.03;1.93;;;15.90;48.50;;;;;;5403873;26;20519;-59
2024/04/26 10:17:33;;;;;;;4.93;2.80;;;15.90;48.40;;;;;;5394610;26;20468;-60
2024/04/26 10:20:03;;;;;;;3.10;2.30;;;16.20;48.10;;;;;;5395519;26;20535;-62
2024/04/26 10:22:29;;;;;;;2.87;2.43;;;16.30;47.60;;;;;;5408628;26;20237;-61
2024/04/26 10:24:55;;;;;;;4.20;1.80;;;16.70;47.50;;;;;;5402590;26;21082;-61
2024/04/26 10:27:28;;;;;;;2.97;2.30;;;16.80;47.50;;;;;;5432963;26;20467;-63
2024/04/26 10:29:54;;;;;;;4.17;2.37;;;16.80;47.50;;;;;;5433779;26;21521;-58
2024/04/26 10:32:20;;;;;;;3.00;2.13;;;16.60;46.50;;;;;;5427530;26;20522;-60
2024/04/26 10:34:46;;;;;;;2.47;2.27;;;16.70;46.90;;;;;;5431904;26;21040;-62
2024/04/26 10:37:13;;;;;;;1.90;1.80;;;16.70;47.30;;;;;;5434280;26;20237;-62
2024/04/26 10:39:39;;;;;;;2.07;1.87;;;16.90;46.80;;;;;;5426803;26;20344;-60
2024/04/26 10:42:05;;;;;;;2.23;2.13;;;17.00;46.90;;;;;;5433011;26;21083;-60
2024/04/26 10:44:31;;;;;;;2.40;2.00;;;17.20;46.80;;;;;;5434020;26;20854;-59
2024/04/26 10:46:57;;;;;;;2.37;1.57;;;17.40;47.00;;;;;;5432516;26;20755;-59
2024/04/26 10:49:23;;;;;;;2.40;2.20;;;17.60;46.20;;;;;;5427661;26;20454;-61
2024/04/26 10:51:49;;;;;;;2.47;2.33;;;17.60;46.10;;;;;;5423793;26;21022;-61
2024/04/26 10:54:15;;;;;;;2.20;1.97;;;17.60;45.80;;;;;;5439491;26;21064;-60
2024/04/26 10:56:42;;;;;;;4.00;2.17;;;17.80;45.10;;;;;;5436675;26;20824;-62
2024/04/26 10:59:24;;;;;;;2.03;1.93;;;17.50;44.40;;;;;;5428820;26;20592;-61
2024/04/26 11:01:57;;;;;;;2.90;1.83;;;17.50;44.30;;;;;;5429612;26;20511;-58
2024/04/26 11:04:23;;;;;;;3.23;2.93;;;17.50;45.40;;;;;;5429616;26;20510;-60
2024/04/26 11:06:49;;;;;;;3.27;2.13;;;17.40;45.60;;;;;;5425188;26;20467;-61
2024/04/26 11:09:17;;;;;;;2.00;1.80;;;17.60;46.00;;;;;;5431079;26;20477;-59
2024/04/26 11:11:55;;;;;;;2.27;1.93;;;17.70;45.40;;;;;;5444216;26;20478;-58
2024/04/26 11:14:22;;;;;;;2.60;1.80;;;17.80;45.70;;;;;;5431650;26;20477;-59
2024/04/26 11:16:48;;;;;;;3.30;2.17;;;18.10;45.20;;;;;;5438358;26;21080;-61
2024/04/26 11:19:15;;;;;;;4.63;1.80;;;18.30;45.20;;;;;;5430578;26;20463;-61
2024/04/26 11:21:41;;;;;;;2.37;1.77;;;18.50;44.70;;;;;;5442071;26;20533;-59
2024/04/26 11:24:06;;;;;;;1.80;1.70;;;18.50;44.90;;;;;;5438138;26;20477;-59
2024/04/26 11:26:35;;;;;;;2.80;2.60;;;18.70;43.80;;;;;;5438515;26;20236;-58
2024/04/26 11:29:01;;;;;;;3.77;1.97;;;18.80;44.10;;;;;;5442372;26;20340;-61
2024/04/26 11:31:26;;;;;;;4.20;2.63;;;18.70;43.20;;;;;;5440569;26;20470;-61
2024/04/26 11:33:52;;;;;;;2.00;1.80;;;18.70;43.40;;;;;;5445653;26;20244;-62
2024/04/26 11:36:20;;;;;;;3.90;1.77;;;18.90;43.90;;;;;;5433964;26;20236;-62
2024/04/26 11:38:45;;;;;;;5.10;1.83;;;19.10;43.40;;;;;;5439111;26;20352;-63
2024/04/26 11:41:11;;;;;;;3.63;1.80;;;19.10;42.90;;;;;;5426947;26;20459;-62
2024/04/26 11:43:38;;;;;;;2.23;1.40;;;19.10;42.90;;;;;;5425858;26;20279;-60
2024/04/26 11:46:07;;;;;;;2.23;1.80;;;19.00;42.60;;;;;;5431195;26;20232;-62
2024/04/26 11:48:32;;;;;;;2.03;1.60;;;19.00;42.80;;;;;;5433025;26;20517;-61
2024/04/26 11:50:58;;;;;;;3.53;1.70;;;18.90;42.70;;;;;;5434168;26;21255;-61
2024/04/26 11:53:24;;;;;;;2.07;1.60;;;18.90;42.80;;;;;;5439037;26;20283;-62
2024/04/26 11:55:49;;;;;;;2.00;1.77;;;18.90;42.80;;;;;;5436699;26;20284;-60
2024/04/26 11:58:15;;;;;;;2.10;1.80;;;19.10;43.20;;;;;;5427379;26;20256;-61
2024/04/26 12:00:41;;;;;;;2.20;1.80;;;19.00;42.70;;;;;;5432885;26;20245;-58
2024/04/26 12:03:06;;;;;;;2.10;1.33;;;19.00;42.60;;;;;;5442256;26;20233;-60
2024/04/26 12:05:35;;;;;;;1.90;1.70;;;18.90;42.80;;;;;;5420019;26;20682;-61
2024/04/26 12:08:04;;;;;;;1.80;1.70;;;18.80;42.70;;;;;;5432805;26;20244;-61
2024/04/26 12:10:30;;;;;;;1.70;1.60;;;18.90;43.30;;;;;;5444771;26;20509;-59
2024/04/26 12:12:55;;;;;;;2.97;1.80;;;19.10;43.30;;;;;;5424804;26;20459;-61
2024/04/26 12:15:21;;;;;;;1.77;1.67;;;19.20;43.00;;;;;;5428803;26;20244;-61
2024/04/26 12:17:46;;;;;;;1.63;1.53;;;19.00;42.40;;;;;;5430615;26;20252;-62
2024/04/26 12:20:12;;;;;;;1.53;1.43;;;19.00;42.40;;;;;;5430989;26;20740;-56
2024/04/26 12:22:37;;;;;;;2.63;1.50;;;18.70;42.70;;;;;;5434948;26;20279;-61
2024/04/26 12:25:04;;;;;;;4.80;1.80;;;18.90;42.70;;;;;;5430386;26;20672;-60
2024/04/26 12:27:29;;;;;;;2.07;1.57;;;19.10;43.10;;;;;;5430939;26;20620;-59
2024/04/26 12:29:55;;;;;;;3.60;1.60;;;19.00;42.60;;;;;;5436668;26;20478;-59
2024/04/26 12:32:21;;;;;;;1.80;1.70;;;19.00;42.50;;;;;;5422527;26;20252;-61
2024/04/26 12:34:47;;;;;;;3.00;1.50;;;19.00;42.90;;;;;;5431000;26;20525;-57
2024/04/26 12:37:13;;;;;;;2.27;1.40;;;19.10;42.60;;;;;;5420355;26;20282;-61
2024/04/26 12:39:43;;;;;;;1.57;1.47;;;19.40;42.60;;;;;;5411021;26;20455;-60
2024/04/26 12:42:09;;;;;;;1.30;1.20;;;19.40;42.80;;;;;;5437610;26;20907;-61
2024/04/26 12:44:35;;;;;;;1.47;1.30;;;19.40;41.20;;;;;;5438525;26;21064;-62